sensor_id;sensor_type;location;lat;lon;timestamp;pressure;altitude;pressure_sealevel;temperature;humidity
54978;BME280;40873;47.522;19.106;2023-10-09T00:02:09;101357.75;;;9.36;69.72
54978;BME280;40873;47.522;19.106;2023-10-09T00:04:40;101362.09;;;9.37;68.16
54978;BME280;40873;47.522;19.106;2023-10-09T00:07:10;101355.13;;;9.36;69.43
54978;BME280;40873;47.522;19.106;2023-10-09T00:09:38;101351.41;;;9.42;68.18
54978;BME280;40873;47.522;19.106;2023-10-09T00:12:16;101351.09;;;9.49;68.89
54978;BME280;40873;47.522;19.106;2023-10-09T00:14:43;101337.63;;;9.57;63.15
54978;BME280;40873;47.522;19.106;2023-10-09T00:17:18;101345.38;;;9.82;62.45
54978;BME280;40873;47.522;19.106;2023-10-09T00:19:49;101362.22;;;9.78;65.92
54978;BME280;40873;47.522;19.106;2023-10-09T00:22:17;101357.59;;;9.63;64.32
54978;BME280;40873;47.522;19.106;2023-10-09T00:24:50;101356.25;;;9.74;62.07
54978;BME280;40873;47.522;19.106;2023-10-09T00:27:38;101353.53;;;9.76;61.70
54978;BME280;40873;47.522;19.106;2023-10-09T00:30:12;101345.31;;;9.83;61.79
54978;BME280;40873;47.522;19.106;2023-10-09T00:32:42;101339.28;;;9.80;62.45
54978;BME280;40873;47.522;19.106;2023-10-09T00:35:18;101343.59;;;9.82;65.89
54978;BME280;40873;47.522;19.106;2023-10-09T00:38:07;101337.22;;;9.88;64.62
54978;BME280;40873;47.522;19.106;2023-10-09T00:40:51;101332.00;;;9.86;64.16
54978;BME280;40873;47.522;19.106;2023-10-09T00:43:31;101332.13;;;9.83;64.30
54978;BME280;40873;47.522;19.106;2023-10-09T00:46:00;101334.69;;;9.85;65.89
54978;BME280;40873;47.522;19.106;2023-10-09T00:48:38;101336.22;;;9.91;66.04
54978;BME280;40873;47.522;19.106;2023-10-09T00:51:07;101337.94;;;9.92;67.00
54978;BME280;40873;47.522;19.106;2023-10-09T00:53:46;101334.28;;;9.96;65.91
54978;BME280;40873;47.522;19.106;2023-10-09T00:56:21;101343.81;;;9.98;65.00
54978;BME280;40873;47.522;19.106;2023-10-09T00:58:58;101334.13;;;9.99;67.06
54978;BME280;40873;47.522;19.106;2023-10-09T01:01:36;101328.94;;;9.97;65.80
54978;BME280;40873;47.522;19.106;2023-10-09T01:04:07;101331.50;;;9.99;66.14
54978;BME280;40873;47.522;19.106;2023-10-09T01:06:41;101333.69;;;10.09;62.75
54978;BME280;40873;47.522;19.106;2023-10-09T01:09:14;101330.22;;;10.07;65.80
54978;BME280;40873;47.522;19.106;2023-10-09T01:11:46;101320.63;;;10.06;64.83
54978;BME280;40873;47.522;19.106;2023-10-09T01:14:30;101326.38;;;10.16;62.93
54978;BME280;40873;47.522;19.106;2023-10-09T01:17:03;101333.44;;;10.15;62.17
54978;BME280;40873;47.522;19.106;2023-10-09T01:19:38;101328.41;;;10.09;64.14
54978;BME280;40873;47.522;19.106;2023-10-09T01:22:05;101331.91;;;10.10;64.33
54978;BME280;40873;47.522;19.106;2023-10-09T01:24:40;101337.28;;;10.07;63.34
54978;BME280;40873;47.522;19.106;2023-10-09T01:27:07;101343.22;;;10.12;61.43
54978;BME280;40873;47.522;19.106;2023-10-09T01:29:43;101331.56;;;10.18;60.72
54978;BME280;40873;47.522;19.106;2023-10-09T01:32:13;101334.31;;;10.36;59.08
54978;BME280;40873;47.522;19.106;2023-10-09T01:34:46;101332.38;;;10.40;58.40
54978;BME280;40873;47.522;19.106;2023-10-09T01:37:20;101339.41;;;10.60;58.30
54978;BME280;40873;47.522;19.106;2023-10-09T01:39:58;101343.59;;;10.45;59.24
54978;BME280;40873;47.522;19.106;2023-10-09T01:42:26;101327.97;;;10.40;58.80
54978;BME280;40873;47.522;19.106;2023-10-09T01:45:12;101325.66;;;10.33;59.98
54978;BME280;40873;47.522;19.106;2023-10-09T01:47:42;101326.44;;;10.35;60.52
54978;BME280;40873;47.522;19.106;2023-10-09T01:50:19;101338.47;;;10.20;62.33
54978;BME280;40873;47.522;19.106;2023-10-09T01:52:51;101333.84;;;10.27;61.49
54978;BME280;40873;47.522;19.106;2023-10-09T01:55:19;101341.13;;;10.20;61.13
54978;BME280;40873;47.522;19.106;2023-10-09T01:58:15;101348.97;;;10.22;61.45
54978;BME280;40873;47.522;19.106;2023-10-09T02:00:49;101341.91;;;10.22;61.64
54978;BME280;40873;47.522;19.106;2023-10-09T02:03:21;101354.38;;;10.19;62.69
54978;BME280;40873;47.522;19.106;2023-10-09T02:05:52;101350.22;;;10.13;63.06
54978;BME280;40873;47.522;19.106;2023-10-09T02:08:27;101356.41;;;10.12;63.13
54978;BME280;40873;47.522;19.106;2023-10-09T02:10:54;101345.41;;;10.02;64.03
54978;BME280;40873;47.522;19.106;2023-10-09T02:13:23;101346.97;;;10.06;65.10
54978;BME280;40873;47.522;19.106;2023-10-09T02:15:58;101337.69;;;9.98;63.69
54978;BME280;40873;47.522;19.106;2023-10-09T02:18:41;101347.78;;;9.88;63.80
54978;BME280;40873;47.522;19.106;2023-10-09T02:21:27;101352.13;;;9.89;63.06
54978;BME280;40873;47.522;19.106;2023-10-09T02:24:11;101347.34;;;9.77;62.09
54978;BME280;40873;47.522;19.106;2023-10-09T02:26:53;101340.63;;;9.70;62.77
54978;BME280;40873;47.522;19.106;2023-10-09T02:29:23;101338.97;;;9.67;63.04
54978;BME280;40873;47.522;19.106;2023-10-09T02:31:53;101327.03;;;9.79;62.83
54978;BME280;40873;47.522;19.106;2023-10-09T02:34:27;101320.13;;;9.76;62.78
54978;BME280;40873;47.522;19.106;2023-10-09T02:36:56;101317.63;;;9.73;62.79
54978;BME280;40873;47.522;19.106;2023-10-09T02:39:34;101318.97;;;9.83;62.05
54978;BME280;40873;47.522;19.106;2023-10-09T02:42:12;101307.03;;;9.75;63.24
54978;BME280;40873;47.522;19.106;2023-10-09T02:44:39;101303.47;;;9.76;63.80
54978;BME280;40873;47.522;19.106;2023-10-09T02:47:07;101308.22;;;9.68;64.24
54978;BME280;40873;47.522;19.106;2023-10-09T02:49:44;101298.69;;;9.64;65.58
54978;BME280;40873;47.522;19.106;2023-10-09T02:52:18;101292.81;;;9.57;66.49
54978;BME280;40873;47.522;19.106;2023-10-09T02:54:56;101295.00;;;9.47;66.98
54978;BME280;40873;47.522;19.106;2023-10-09T02:57:27;101285.66;;;9.39;68.41
54978;BME280;40873;47.522;19.106;2023-10-09T03:00:04;101293.06;;;9.51;67.35
54978;BME280;40873;47.522;19.106;2023-10-09T03:02:36;101289.25;;;9.58;68.09
54978;BME280;40873;47.522;19.106;2023-10-09T03:05:07;101282.19;;;9.60;68.69
54978;BME280;40873;47.522;19.106;2023-10-09T03:07:39;101282.44;;;9.54;69.64
54978;BME280;40873;47.522;19.106;2023-10-09T03:10:09;101267.72;;;9.48;70.99
54978;BME280;40873;47.522;19.106;2023-10-09T03:12:36;101267.66;;;9.50;71.39
54978;BME280;40873;47.522;19.106;2023-10-09T03:15:06;101288.41;;;9.57;71.57
54978;BME280;40873;47.522;19.106;2023-10-09T03:17:35;101300.06;;;9.52;72.37
54978;BME280;40873;47.522;19.106;2023-10-09T03:20:06;101287.91;;;9.70;72.01
54978;BME280;40873;47.522;19.106;2023-10-09T03:22:43;101277.75;;;9.60;71.37
54978;BME280;40873;47.522;19.106;2023-10-09T03:25:11;101284.53;;;9.66;71.80
54978;BME280;40873;47.522;19.106;2023-10-09T03:27:41;101292.84;;;9.77;69.83
54978;BME280;40873;47.522;19.106;2023-10-09T03:30:16;101286.97;;;9.71;70.42
54978;BME280;40873;47.522;19.106;2023-10-09T03:32:53;101281.53;;;9.75;69.29
54978;BME280;40873;47.522;19.106;2023-10-09T03:35:22;101281.00;;;9.67;69.64
54978;BME280;40873;47.522;19.106;2023-10-09T03:37:58;101297.41;;;9.74;69.31
54978;BME280;40873;47.522;19.106;2023-10-09T03:40:42;101313.81;;;9.80;69.27
54978;BME280;40873;47.522;19.106;2023-10-09T03:43:10;101306.88;;;9.78;68.99
54978;BME280;40873;47.522;19.106;2023-10-09T03:45:38;101290.69;;;9.87;68.93
54978;BME280;40873;47.522;19.106;2023-10-09T03:48:12;101275.16;;;9.81;68.91
54978;BME280;40873;47.522;19.106;2023-10-09T03:50:47;101278.50;;;9.84;69.49
54978;BME280;40873;47.522;19.106;2023-10-09T03:53:15;101277.38;;;9.90;69.43
54978;BME280;40873;47.522;19.106;2023-10-09T03:55:43;101283.84;;;9.83;70.05
54978;BME280;40873;47.522;19.106;2023-10-09T03:58:10;101272.38;;;9.84;69.78
54978;BME280;40873;47.522;19.106;2023-10-09T04:00:41;101277.03;;;9.77;70.96
54978;BME280;40873;47.522;19.106;2023-10-09T04:03:13;101267.03;;;9.85;70.43
54978;BME280;40873;47.522;19.106;2023-10-09T04:05:42;101266.00;;;9.89;70.79
54978;BME280;40873;47.522;19.106;2023-10-09T04:08:11;101267.69;;;9.91;70.16
54978;BME280;40873;47.522;19.106;2023-10-09T04:10:46;101273.97;;;9.88;70.38
54978;BME280;40873;47.522;19.106;2023-10-09T04:13:31;101267.78;;;9.89;70.21
54978;BME280;40873;47.522;19.106;2023-10-09T04:16:02;101270.25;;;9.92;69.65
54978;BME280;40873;47.522;19.106;2023-10-09T04:18:48;101261.50;;;9.92;67.93
54978;BME280;40873;47.522;19.106;2023-10-09T04:21:16;101269.22;;;9.96;68.21
54978;BME280;40873;47.522;19.106;2023-10-09T04:23:47;101270.94;;;9.97;67.15
54978;BME280;40873;47.522;19.106;2023-10-09T04:26:37;101269.84;;;10.01;67.21
54978;BME280;40873;47.522;19.106;2023-10-09T04:29:06;101259.72;;;10.12;65.29
54978;BME280;40873;47.522;19.106;2023-10-09T04:31:37;101246.69;;;10.09;65.38
54978;BME280;40873;47.522;19.106;2023-10-09T04:34:05;101251.53;;;10.19;63.72
54978;BME280;40873;47.522;19.106;2023-10-09T04:36:57;101262.00;;;10.20;63.71
54978;BME280;40873;47.522;19.106;2023-10-09T04:39:28;101248.97;;;10.17;62.77
54978;BME280;40873;47.522;19.106;2023-10-09T04:41:55;101250.78;;;10.15;62.77
54978;BME280;40873;47.522;19.106;2023-10-09T04:44:42;101235.78;;;10.17;61.14
54978;BME280;40873;47.522;19.106;2023-10-09T04:47:29;101245.47;;;10.16;61.10
54978;BME280;40873;47.522;19.106;2023-10-09T04:50:08;101242.84;;;10.16;60.95
54978;BME280;40873;47.522;19.106;2023-10-09T04:52:58;101249.94;;;10.14;61.65
54978;BME280;40873;47.522;19.106;2023-10-09T04:55:45;101247.66;;;10.07;61.29
54978;BME280;40873;47.522;19.106;2023-10-09T04:58:22;101236.25;;;10.06;61.60
54978;BME280;40873;47.522;19.106;2023-10-09T05:00:58;101226.63;;;10.05;61.57
54978;BME280;40873;47.522;19.106;2023-10-09T05:03:28;101226.22;;;10.14;61.19
54978;BME280;40873;47.522;19.106;2023-10-09T05:06:11;101222.88;;;10.11;60.99
54978;BME280;40873;47.522;19.106;2023-10-09T05:08:48;101221.78;;;10.15;61.22
54978;BME280;40873;47.522;19.106;2023-10-09T05:11:16;101222.03;;;10.10;61.09
54978;BME280;40873;47.522;19.106;2023-10-09T05:14:01;101216.09;;;10.05;61.23
54978;BME280;40873;47.522;19.106;2023-10-09T05:16:51;101234.88;;;9.98;61.68
54978;BME280;40873;47.522;19.106;2023-10-09T05:19:22;101230.47;;;9.98;61.49
54978;BME280;40873;47.522;19.106;2023-10-09T05:22:11;101226.81;;;10.01;61.53
54978;BME280;40873;47.522;19.106;2023-10-09T05:24:58;101225.34;;;9.95;61.40
54978;BME280;40873;47.522;19.106;2023-10-09T05:27:28;101205.03;;;9.97;61.42
54978;BME280;40873;47.522;19.106;2023-10-09T05:30:17;101209.88;;;10.06;61.94
54978;BME280;40873;47.522;19.106;2023-10-09T05:32:54;101211.22;;;9.96;62.08
54978;BME280;40873;47.522;19.106;2023-10-09T05:35:25;101219.66;;;10.04;62.14
54978;BME280;40873;47.522;19.106;2023-10-09T05:38:13;101240.22;;;9.96;61.16
54978;BME280;40873;47.522;19.106;2023-10-09T05:40:51;101230.47;;;9.98;61.81
54978;BME280;40873;47.522;19.106;2023-10-09T05:43:31;101236.47;;;10.02;61.91
54978;BME280;40873;47.522;19.106;2023-10-09T05:46:17;101255.78;;;10.02;61.59
54978;BME280;40873;47.522;19.106;2023-10-09T05:48:44;101257.41;;;10.05;61.20
54978;BME280;40873;47.522;19.106;2023-10-09T05:51:21;101247.47;;;10.11;60.86
54978;BME280;40873;47.522;19.106;2023-10-09T05:54:07;101240.06;;;10.20;60.46
54978;BME280;40873;47.522;19.106;2023-10-09T05:56:53;101197.94;;;10.18;59.95
54978;BME280;40873;47.522;19.106;2023-10-09T05:59:38;101205.94;;;10.16;59.82
54978;BME280;40873;47.522;19.106;2023-10-09T06:02:24;101234.13;;;10.14;60.29
54978;BME280;40873;47.522;19.106;2023-10-09T06:05:25;101221.00;;;10.13;59.72
54978;BME280;40873;47.522;19.106;2023-10-09T06:08:08;101224.16;;;10.21;60.16
54978;BME280;40873;47.522;19.106;2023-10-09T06:10:36;101216.16;;;10.24;59.95
54978;BME280;40873;47.522;19.106;2023-10-09T06:13:08;101208.03;;;10.29;60.14
54978;BME280;40873;47.522;19.106;2023-10-09T06:15:55;101202.03;;;10.25;58.70
54978;BME280;40873;47.522;19.106;2023-10-09T06:18:58;101195.16;;;10.21;58.62
54978;BME280;40873;47.522;19.106;2023-10-09T06:21:43;101192.75;;;10.16;58.61
54978;BME280;40873;47.522;19.106;2023-10-09T06:24:20;101183.06;;;10.17;58.32
54978;BME280;40873;47.522;19.106;2023-10-09T06:26:50;101174.13;;;10.20;58.55
54978;BME280;40873;47.522;19.106;2023-10-09T06:29:27;101185.22;;;10.28;58.81
54978;BME280;40873;47.522;19.106;2023-10-09T06:32:07;101183.97;;;10.36;57.41
54978;BME280;40873;47.522;19.106;2023-10-09T06:35:02;101192.38;;;10.45;57.79
54978;BME280;40873;47.522;19.106;2023-10-09T06:37:49;101193.31;;;10.43;56.17
54978;BME280;40873;47.522;19.106;2023-10-09T06:40:36;101197.06;;;10.38;56.04
54978;BME280;40873;47.522;19.106;2023-10-09T06:43:04;101195.69;;;10.48;56.27
54978;BME280;40873;47.522;19.106;2023-10-09T06:45:36;101196.63;;;10.47;54.27
54978;BME280;40873;47.522;19.106;2023-10-09T06:48:13;101198.34;;;10.48;54.54
54978;BME280;40873;47.522;19.106;2023-10-09T06:51:18;101197.06;;;10.57;53.99
54978;BME280;40873;47.522;19.106;2023-10-09T06:53:55;101193.00;;;10.50;53.10
54978;BME280;40873;47.522;19.106;2023-10-09T06:56:24;101185.44;;;10.61;53.28
54978;BME280;40873;47.522;19.106;2023-10-09T06:59:11;101182.38;;;10.51;51.75
54978;BME280;40873;47.522;19.106;2023-10-09T07:01:49;101173.09;;;10.61;51.31
54978;BME280;40873;47.522;19.106;2023-10-09T07:04:36;101171.38;;;10.60;51.14
54978;BME280;40873;47.522;19.106;2023-10-09T07:07:03;101164.13;;;10.65;50.66
54978;BME280;40873;47.522;19.106;2023-10-09T07:09:48;101170.94;;;10.69;50.24
54978;BME280;40873;47.522;19.106;2023-10-09T07:12:33;101166.22;;;10.76;51.63
54978;BME280;40873;47.522;19.106;2023-10-09T07:15:01;101169.16;;;10.70;50.23
54978;BME280;40873;47.522;19.106;2023-10-09T07:17:28;101159.88;;;10.80;49.56
54978;BME280;40873;47.522;19.106;2023-10-09T07:20:15;101154.50;;;10.64;49.86
54978;BME280;40873;47.522;19.106;2023-10-09T07:23:03;101155.84;;;10.54;48.42
54978;BME280;40873;47.522;19.106;2023-10-09T07:25:44;101145.00;;;10.60;49.48
54978;BME280;40873;47.522;19.106;2023-10-09T07:28:24;101123.91;;;10.60;50.17
54978;BME280;40873;47.522;19.106;2023-10-09T07:31:17;101087.97;;;10.58;50.26
54978;BME280;40873;47.522;19.106;2023-10-09T07:33:51;101084.22;;;10.62;49.80
54978;BME280;40873;47.522;19.106;2023-10-09T07:36:25;101084.56;;;10.73;50.18
54978;BME280;40873;47.522;19.106;2023-10-09T07:39:05;101076.59;;;10.92;50.08
54978;BME280;40873;47.522;19.106;2023-10-09T07:41:41;101061.38;;;10.97;49.49
54978;BME280;40873;47.522;19.106;2023-10-09T07:44:28;101076.22;;;11.00;50.00
54978;BME280;40873;47.522;19.106;2023-10-09T07:47:04;101058.59;;;11.00;48.72
54978;BME280;40873;47.522;19.106;2023-10-09T07:49:44;101062.38;;;11.29;48.73
54978;BME280;40873;47.522;19.106;2023-10-09T07:52:21;101063.03;;;11.33;48.48
54978;BME280;40873;47.522;19.106;2023-10-09T07:54:52;101078.75;;;11.18;48.75
54978;BME280;40873;47.522;19.106;2023-10-09T07:57:21;101063.84;;;11.35;48.28
54978;BME280;40873;47.522;19.106;2023-10-09T07:59:56;101062.78;;;11.55;48.32
54978;BME280;40873;47.522;19.106;2023-10-09T08:02:39;101067.94;;;11.40;47.52
54978;BME280;40873;47.522;19.106;2023-10-09T08:05:06;101069.81;;;11.38;47.23
54978;BME280;40873;47.522;19.106;2023-10-09T08:07:46;101071.22;;;11.28;47.08
54978;BME280;40873;47.522;19.106;2023-10-09T08:10:45;101060.53;;;11.14;47.42
54978;BME280;40873;47.522;19.106;2023-10-09T08:13:31;101058.88;;;11.11;47.05
54978;BME280;40873;47.522;19.106;2023-10-09T08:16:19;101057.41;;;11.23;47.30
54978;BME280;40873;47.522;19.106;2023-10-09T08:18:54;101051.50;;;11.18;46.92
54978;BME280;40873;47.522;19.106;2023-10-09T08:21:24;101046.66;;;11.26;47.27
54978;BME280;40873;47.522;19.106;2023-10-09T08:24:09;101027.34;;;10.91;46.41
54978;BME280;40873;47.522;19.106;2023-10-09T08:26:56;101039.00;;;10.69;46.67
54978;BME280;40873;47.522;19.106;2023-10-09T08:29:43;101027.13;;;10.78;48.12
54978;BME280;40873;47.522;19.106;2023-10-09T08:32:16;101035.53;;;10.86;47.88
54978;BME280;40873;47.522;19.106;2023-10-09T08:35:11;101042.88;;;10.97;48.23
54978;BME280;40873;47.522;19.106;2023-10-09T08:37:57;101034.16;;;11.12;47.28
54978;BME280;40873;47.522;19.106;2023-10-09T08:40:33;101022.56;;;10.99;47.47
54978;BME280;40873;47.522;19.106;2023-10-09T08:43:21;101020.91;;;10.96;47.97
54978;BME280;40873;47.522;19.106;2023-10-09T08:45:51;101023.63;;;10.95;47.66
54978;BME280;40873;47.522;19.106;2023-10-09T08:48:20;101012.44;;;11.07;48.10
54978;BME280;40873;47.522;19.106;2023-10-09T08:50:49;101016.31;;;11.17;47.74
54978;BME280;40873;47.522;19.106;2023-10-09T08:53:22;101022.66;;;11.31;48.24
54978;BME280;40873;47.522;19.106;2023-10-09T08:55:51;101020.00;;;11.31;47.95
54978;BME280;40873;47.522;19.106;2023-10-09T08:58:24;101015.66;;;11.30;48.14
54978;BME280;40873;47.522;19.106;2023-10-09T09:01:04;101001.41;;;11.49;47.58
54978;BME280;40873;47.522;19.106;2023-10-09T09:03:41;100989.56;;;11.57;47.91
54978;BME280;40873;47.522;19.106;2023-10-09T09:06:12;100990.50;;;11.56;48.67
54978;BME280;40873;47.522;19.106;2023-10-09T09:08:43;100970.88;;;11.60;48.20
54978;BME280;40873;47.522;19.106;2023-10-09T09:11:16;100975.16;;;11.62;47.67
54978;BME280;40873;47.522;19.106;2023-10-09T09:13:45;100977.41;;;11.86;47.63
54978;BME280;40873;47.522;19.106;2023-10-09T09:16:20;100975.78;;;11.99;47.11
54978;BME280;40873;47.522;19.106;2023-10-09T09:18:53;100978.84;;;12.07;47.17
54978;BME280;40873;47.522;19.106;2023-10-09T09:21:29;100976.47;;;12.02;46.00
54978;BME280;40873;47.522;19.106;2023-10-09T09:24:00;100974.78;;;12.17;45.64
54978;BME280;40873;47.522;19.106;2023-10-09T09:26:42;100975.31;;;12.38;45.37
54978;BME280;40873;47.522;19.106;2023-10-09T09:29:14;100970.28;;;12.33;44.66
54978;BME280;40873;47.522;19.106;2023-10-09T09:31:55;100961.94;;;12.55;44.30
54978;BME280;40873;47.522;19.106;2023-10-09T09:34:27;100959.81;;;12.32;43.81
54978;BME280;40873;47.522;19.106;2023-10-09T09:36:57;100956.34;;;12.90;42.85
54978;BME280;40873;47.522;19.106;2023-10-09T09:39:26;100959.25;;;13.44;41.94
54978;BME280;40873;47.522;19.106;2023-10-09T09:42:05;100961.59;;;13.49;42.05
54978;BME280;40873;47.522;19.106;2023-10-09T09:44:34;100954.06;;;13.69;41.36
54978;BME280;40873;47.522;19.106;2023-10-09T09:47:12;100950.78;;;14.07;40.64
54978;BME280;40873;47.522;19.106;2023-10-09T09:49:41;100954.72;;;14.14;41.14
54978;BME280;40873;47.522;19.106;2023-10-09T09:52:09;100946.25;;;14.49;39.37
54978;BME280;40873;47.522;19.106;2023-10-09T09:54:39;100947.38;;;14.97;39.65
54978;BME280;40873;47.522;19.106;2023-10-09T09:57:12;100944.50;;;14.88;38.96
54978;BME280;40873;47.522;19.106;2023-10-09T09:59:41;100948.41;;;14.69;38.80
54978;BME280;40873;47.522;19.106;2023-10-09T10:02:22;100938.41;;;14.47;39.87
54978;BME280;40873;47.522;19.106;2023-10-09T10:04:55;100933.03;;;14.74;39.49
54978;BME280;40873;47.522;19.106;2023-10-09T10:07:24;100939.50;;;14.70;39.25
54978;BME280;40873;47.522;19.106;2023-10-09T10:09:52;100933.44;;;15.06;38.79
54978;BME280;40873;47.522;19.106;2023-10-09T10:12:49;100899.00;;;14.92;38.04
54978;BME280;40873;47.522;19.106;2023-10-09T10:15:59;100856.06;;;14.35;39.49
54978;BME280;40873;47.522;19.106;2023-10-09T10:18:32;100827.56;;;14.24;40.79
54978;BME280;40873;47.522;19.106;2023-10-09T10:21:20;100842.47;;;14.26;39.94
54978;BME280;40873;47.522;19.106;2023-10-09T10:24:01;100823.75;;;14.15;40.41
54978;BME280;40873;47.522;19.106;2023-10-09T10:26:36;100833.38;;;14.04;40.30
54978;BME280;40873;47.522;19.106;2023-10-09T10:29:17;100833.78;;;13.97;40.29
54978;BME280;40873;47.522;19.106;2023-10-09T10:32:03;100820.28;;;13.88;40.72
54978;BME280;40873;47.522;19.106;2023-10-09T10:37:13;100785.75;;;14.15;39.93
54978;BME280;40873;47.522;19.106;2023-10-09T10:39:50;100772.16;;;14.83;39.41
54978;BME280;40873;47.522;19.106;2023-10-09T10:42:17;100784.69;;;14.81;39.08
54978;BME280;40873;47.522;19.106;2023-10-09T10:45:06;100775.66;;;15.20;38.38
54978;BME280;40873;47.522;19.106;2023-10-09T10:47:56;100776.44;;;15.57;37.77
54978;BME280;40873;47.522;19.106;2023-10-09T10:50:25;100759.88;;;15.54;37.75
54978;BME280;40873;47.522;19.106;2023-10-09T10:53:09;100729.09;;;15.98;37.68
54978;BME280;40873;47.522;19.106;2023-10-09T10:56:01;100762.00;;;15.61;37.42
54978;BME280;40873;47.522;19.106;2023-10-09T10:58:43;100774.72;;;15.69;37.65
54978;BME280;40873;47.522;19.106;2023-10-09T11:01:31;100772.91;;;15.94;36.90
54978;BME280;40873;47.522;19.106;2023-10-09T11:04:21;100770.38;;;16.83;36.17
54978;BME280;40873;47.522;19.106;2023-10-09T11:07:06;100739.69;;;16.33;36.01
54978;BME280;40873;47.522;19.106;2023-10-09T11:09:55;100784.38;;;16.96;36.06
54978;BME280;40873;47.522;19.106;2023-10-09T11:12:42;100761.44;;;16.15;36.51
54978;BME280;40873;47.522;19.106;2023-10-09T11:15:12;100740.63;;;15.50;37.20
54978;BME280;40873;47.522;19.106;2023-10-09T11:20:33;100778.91;;;15.00;38.97
54978;BME280;40873;47.522;19.106;2023-10-09T11:23:01;100810.66;;;15.14;38.61
54978;BME280;40873;47.522;19.106;2023-10-09T11:25:46;100806.00;;;15.42;38.38
54978;BME280;40873;47.522;19.106;2023-10-09T11:28:21;100767.50;;;16.06;36.82
54978;BME280;40873;47.522;19.106;2023-10-09T11:31:06;100710.00;;;16.93;35.77
54978;BME280;40873;47.522;19.106;2023-10-09T11:33:45;100694.41;;;17.21;35.53
54978;BME280;40873;47.522;19.106;2023-10-09T11:36:15;100755.19;;;18.02;34.71
54978;BME280;40873;47.522;19.106;2023-10-09T11:38:43;100783.19;;;18.08;34.97
54978;BME280;40873;47.522;19.106;2023-10-09T11:41:16;100774.44;;;18.27;33.93
54978;BME280;40873;47.522;19.106;2023-10-09T11:43:48;100804.50;;;17.12;35.22
54978;BME280;40873;47.522;19.106;2023-10-09T11:46:21;100773.25;;;17.46;34.72
54978;BME280;40873;47.522;19.106;2023-10-09T11:51:46;100746.72;;;17.76;34.81
54978;BME280;40873;47.522;19.106;2023-10-09T11:54:32;100752.63;;;16.37;36.17
54978;BME280;40873;47.522;19.106;2023-10-09T11:57:02;100733.03;;;16.50;36.51
54978;BME280;40873;47.522;19.106;2023-10-09T11:59:33;100719.75;;;17.26;36.39
54978;BME280;40873;47.522;19.106;2023-10-09T12:02:09;100712.09;;;17.22;36.91
54978;BME280;40873;47.522;19.106;2023-10-09T12:04:40;100722.63;;;16.69;37.67
54978;BME280;40873;47.522;19.106;2023-10-09T12:07:12;100698.00;;;15.87;40.16
54978;BME280;40873;47.522;19.106;2023-10-09T12:09:39;100688.56;;;15.83;40.52
54978;BME280;40873;47.522;19.106;2023-10-09T12:12:07;100687.97;;;15.55;42.31
54978;BME280;40873;47.522;19.106;2023-10-09T12:14:36;100690.81;;;15.65;43.62
54978;BME280;40873;47.522;19.106;2023-10-09T12:17:07;100692.44;;;15.55;44.64
54978;BME280;40873;47.522;19.106;2023-10-09T12:19:36;100678.59;;;15.62;43.57
54978;BME280;40873;47.522;19.106;2023-10-09T12:22:08;100685.69;;;15.51;43.38
54978;BME280;40873;47.522;19.106;2023-10-09T12:24:43;100683.75;;;15.29;45.98
54978;BME280;40873;47.522;19.106;2023-10-09T12:27:10;100678.22;;;15.32;45.57
54978;BME280;40873;47.522;19.106;2023-10-09T12:29:38;100673.94;;;15.53;45.71
54978;BME280;40873;47.522;19.106;2023-10-09T12:32:11;100656.97;;;15.67;46.28
54978;BME280;40873;47.522;19.106;2023-10-09T12:34:39;100647.88;;;15.58;44.20
54978;BME280;40873;47.522;19.106;2023-10-09T12:37:06;100662.91;;;15.82;45.25
54978;BME280;40873;47.522;19.106;2023-10-09T12:39:33;100670.44;;;15.53;46.32
54978;BME280;40873;47.522;19.106;2023-10-09T12:42:00;100659.22;;;15.25;45.69
54978;BME280;40873;47.522;19.106;2023-10-09T12:44:35;100658.03;;;15.29;45.87
54978;BME280;40873;47.522;19.106;2023-10-09T12:47:09;100659.47;;;14.98;46.82
54978;BME280;40873;47.522;19.106;2023-10-09T12:49:39;100665.06;;;15.06;49.47
54978;BME280;40873;47.522;19.106;2023-10-09T12:52:07;100673.53;;;15.12;49.83
54978;BME280;40873;47.522;19.106;2023-10-09T12:54:43;100675.69;;;15.30;50.27
54978;BME280;40873;47.522;19.106;2023-10-09T12:57:13;100670.03;;;15.11;52.83
54978;BME280;40873;47.522;19.106;2023-10-09T12:59:42;100666.63;;;14.85;54.50
54978;BME280;40873;47.522;19.106;2023-10-09T13:02:15;100680.00;;;14.60;53.59
54978;BME280;40873;47.522;19.106;2023-10-09T13:04:58;100668.53;;;14.59;56.17
54978;BME280;40873;47.522;19.106;2023-10-09T13:07:27;100675.34;;;14.50;55.23
54978;BME280;40873;47.522;19.106;2023-10-09T13:09:54;100675.03;;;14.42;54.74
54978;BME280;40873;47.522;19.106;2023-10-09T13:12:38;100669.59;;;14.44;57.97
54978;BME280;40873;47.522;19.106;2023-10-09T13:15:11;100662.72;;;14.41;56.41
54978;BME280;40873;47.522;19.106;2023-10-09T13:17:39;100660.66;;;14.45;60.84
54978;BME280;40873;47.522;19.106;2023-10-09T13:20:06;100657.84;;;14.48;58.68
54978;BME280;40873;47.522;19.106;2023-10-09T13:22:41;100654.22;;;14.49;58.24
54978;BME280;40873;47.522;19.106;2023-10-09T13:25:09;100650.16;;;14.43;61.73
54978;BME280;40873;47.522;19.106;2023-10-09T13:28:00;100643.06;;;14.31;62.29
54978;BME280;40873;47.522;19.106;2023-10-09T13:30:31;100644.03;;;14.30;62.58
54978;BME280;40873;47.522;19.106;2023-10-09T13:33:07;100646.16;;;14.25;70.77
54978;BME280;40873;47.522;19.106;2023-10-09T13:35:44;100640.75;;;14.26;71.83
54978;BME280;40873;47.522;19.106;2023-10-09T13:38:17;100632.16;;;14.23;74.95